sensor_id;sensor_type;location;lat;lon;timestamp;pressure;altitude;pressure_sealevel;temperature;humidity
50103;BME280;35993;52.604;10.078;2023-03-14T00:00:33;98645.81;;;10.27;100.00
50103;BME280;35993;52.604;10.078;2023-03-14T00:02:59;98643.34;;;10.25;100.00
50103;BME280;35993;52.604;10.078;2023-03-14T00:05:24;98628.72;;;10.26;100.00
50103;BME280;35993;52.604;10.078;2023-03-14T00:07:50;98639.28;;;10.23;100.00
50103;BME280;35993;52.604;10.078;2023-03-14T00:10:15;98645.78;;;10.22;100.00
50103;BME280;35993;52.604;10.078;2023-03-14T00:12:42;98626.00;;;10.21;100.00
50103;BME280;35993;52.604;10.078;2023-03-14T00:15:08;98616.75;;;10.17;100.00
50103;BME280;35993;52.604;10.078;2023-03-14T00:17:35;98591.28;;;10.13;100.00
50103;BME280;35993;52.604;10.078;2023-03-14T00:20:01;98587.19;;;10.10;100.00
50103;BME280;35993;52.604;10.078;2023-03-14T00:22:37;98573.06;;;10.08;100.00
50103;BME280;35993;52.604;10.078;2023-03-14T00:25:04;98567.09;;;10.06;100.00
50103;BME280;35993;52.604;10.078;2023-03-14T00:27:29;98552.47;;;10.07;100.00
50103;BME280;35993;52.604;10.078;2023-03-14T00:29:55;98572.78;;;10.05;100.00
50103;BME280;35993;52.604;10.078;2023-03-14T00:32:21;98586.34;;;10.10;100.00
50103;BME280;35993;52.604;10.078;2023-03-14T00:34:46;98590.41;;;10.07;100.00
50103;BME280;35993;52.604;10.078;2023-03-14T00:37:12;98578.78;;;10.07;100.00
50103;BME280;35993;52.604;10.078;2023-03-14T00:39:37;98583.38;;;10.11;100.00
50103;BME280;35993;52.604;10.078;2023-03-14T00:42:03;98599.63;;;10.06;100.00
50103;BME280;35993;52.604;10.078;2023-03-14T00:44:28;98592.03;;;10.03;100.00
50103;BME280;35993;52.604;10.078;2023-03-14T00:46:54;98585.53;;;9.99;100.00
50103;BME280;35993;52.604;10.078;2023-03-14T00:49:19;98583.63;;;9.99;100.00
50103;BME280;35993;52.604;10.078;2023-03-14T00:51:45;98593.94;;;9.97;100.00
50103;BME280;35993;52.604;10.078;2023-03-14T00:54:11;98607.75;;;10.01;100.00
50103;BME280;35993;52.604;10.078;2023-03-14T00:56:36;98612.91;;;9.97;100.00
50103;BME280;35993;52.604;10.078;2023-03-14T00:59:02;98622.41;;;10.05;100.00
50103;BME280;35993;52.604;10.078;2023-03-14T01:01:27;98617.81;;;10.06;100.00
50103;BME280;35993;52.604;10.078;2023-03-14T01:03:54;98609.69;;;10.11;100.00
50103;BME280;35993;52.604;10.078;2023-03-14T01:06:23;98602.66;;;10.15;100.00
50103;BME280;35993;52.604;10.078;2023-03-14T01:08:50;98607.78;;;10.16;100.00
50103;BME280;35993;52.604;10.078;2023-03-14T01:11:22;98591.53;;;10.16;100.00
50103;BME280;35993;52.604;10.078;2023-03-14T01:13:49;98580.44;;;10.13;100.00
50103;BME280;35993;52.604;10.078;2023-03-14T01:16:16;98583.94;;;10.13;100.00
50103;BME280;35993;52.604;10.078;2023-03-14T01:18:44;98569.59;;;10.13;100.00
50103;BME280;35993;52.604;10.078;2023-03-14T01:21:13;98549.50;;;10.14;100.00
50103;BME280;35993;52.604;10.078;2023-03-14T01:23:40;98547.31;;;10.11;100.00
50103;BME280;35993;52.604;10.078;2023-03-14T01:26:08;98560.88;;;10.11;100.00
50103;BME280;35993;52.604;10.078;2023-03-14T01:28:34;98566.88;;;10.13;100.00
50103;BME280;35993;52.604;10.078;2023-03-14T01:31:05;98574.16;;;10.12;100.00
50103;BME280;35993;52.604;10.078;2023-03-14T01:33:31;98557.91;;;10.12;100.00
50103;BME280;35993;52.604;10.078;2023-03-14T01:35:56;98549.50;;;10.14;100.00
50103;BME280;35993;52.604;10.078;2023-03-14T01:38:22;98543.84;;;10.15;100.00
50103;BME280;35993;52.604;10.078;2023-03-14T01:40:48;98540.84;;;10.12;100.00
50103;BME280;35993;52.604;10.078;2023-03-14T01:43:19;98541.13;;;10.15;100.00
50103;BME280;35993;52.604;10.078;2023-03-14T01:48:57;98523.22;;;10.14;100.00
50103;BME280;35993;52.604;10.078;2023-03-14T01:54:14;98541.34;;;10.09;100.00
50103;BME280;35993;52.604;10.078;2023-03-14T01:56:44;98563.84;;;10.04;100.00
50103;BME280;35993;52.604;10.078;2023-03-14T01:59:12;98556.53;;;10.10;100.00
50103;BME280;35993;52.604;10.078;2023-03-14T02:01:41;98529.16;;;10.11;100.00
50103;BME280;35993;52.604;10.078;2023-03-14T02:04:08;98500.69;;;10.09;100.00
50103;BME280;35993;52.604;10.078;2023-03-14T02:06:50;98486.59;;;10.12;100.00
50103;BME280;35993;52.604;10.078;2023-03-14T02:09:18;98499.09;;;10.18;100.00
50103;BME280;35993;52.604;10.078;2023-03-14T02:11:44;98520.50;;;10.20;100.00
50103;BME280;35993;52.604;10.078;2023-03-14T02:14:32;98519.44;;;10.21;100.00
50103;BME280;35993;52.604;10.078;2023-03-14T02:17:17;98518.34;;;10.22;100.00
50103;BME280;35993;52.604;10.078;2023-03-14T02:23:10;98534.38;;;10.33;100.00
50103;BME280;35993;52.604;10.078;2023-03-14T02:25:44;98528.72;;;10.40;100.00
50103;BME280;35993;52.604;10.078;2023-03-14T02:28:12;98532.78;;;10.43;100.00
50103;BME280;35993;52.604;10.078;2023-03-14T02:30:38;98540.09;;;10.37;100.00
50103;BME280;35993;52.604;10.078;2023-03-14T02:33:17;98530.88;;;10.38;100.00
50103;BME280;35993;52.604;10.078;2023-03-14T02:35:52;98538.47;;;10.41;100.00
50103;BME280;35993;52.604;10.078;2023-03-14T02:40:48;98537.66;;;10.41;100.00
50103;BME280;35993;52.604;10.078;2023-03-14T02:43:14;98533.06;;;10.46;100.00
50103;BME280;35993;52.604;10.078;2023-03-14T02:45:48;98526.56;;;10.42;100.00
50103;BME280;35993;52.604;10.078;2023-03-14T02:48:24;98523.00;;;10.42;100.00
50103;BME280;35993;52.604;10.078;2023-03-14T02:50:53;98521.66;;;10.44;100.00
50103;BME280;35993;52.604;10.078;2023-03-14T02:53:24;98519.50;;;10.46;100.00
50103;BME280;35993;52.604;10.078;2023-03-14T02:55:52;98503.75;;;10.43;100.00
50103;BME280;35993;52.604;10.078;2023-03-14T02:58:20;98503.75;;;10.48;100.00
50103;BME280;35993;52.604;10.078;2023-03-14T03:00:48;98509.16;;;10.54;100.00
50103;BME280;35993;52.604;10.078;2023-03-14T03:03:14;98504.56;;;10.49;100.00
50103;BME280;35993;52.604;10.078;2023-03-14T03:05:40;98503.50;;;10.50;100.00
50103;BME280;35993;52.604;10.078;2023-03-14T03:08:06;98498.59;;;10.47;100.00
50103;BME280;35993;52.604;10.078;2023-03-14T03:10:32;98493.16;;;10.47;100.00
50103;BME280;35993;52.604;10.078;2023-03-14T03:12:58;98504.56;;;10.44;100.00
50103;BME280;35993;52.604;10.078;2023-03-14T03:15:26;98487.22;;;10.40;100.00
50103;BME280;35993;52.604;10.078;2023-03-14T03:17:52;98480.16;;;10.39;100.00
50103;BME280;35993;52.604;10.078;2023-03-14T03:20:19;98479.59;;;10.42;100.00
50103;BME280;35993;52.604;10.078;2023-03-14T03:22:45;98489.94;;;10.45;100.00
50103;BME280;35993;52.604;10.078;2023-03-14T03:25:10;98489.66;;;10.52;100.00
50103;BME280;35993;52.604;10.078;2023-03-14T03:27:36;98490.47;;;10.47;100.00
50103;BME280;35993;52.604;10.078;2023-03-14T03:30:05;98479.88;;;10.45;100.00
50103;BME280;35993;52.604;10.078;2023-03-14T03:32:32;98480.44;;;10.42;100.00
50103;BME280;35993;52.604;10.078;2023-03-14T03:34:58;98483.16;;;10.37;100.00
50103;BME280;35993;52.604;10.078;2023-03-14T03:37:24;98479.88;;;10.45;100.00
50103;BME280;35993;52.604;10.078;2023-03-14T03:39:51;98472.03;;;10.49;100.00
50103;BME280;35993;52.604;10.078;2023-03-14T03:42:17;98472.03;;;10.54;100.00
50103;BME280;35993;52.604;10.078;2023-03-14T03:44:43;98469.31;;;10.49;100.00
50103;BME280;35993;52.604;10.078;2023-03-14T03:47:10;98463.88;;;10.54;100.00
50103;BME280;35993;52.604;10.078;2023-03-14T03:49:35;98452.47;;;10.62;100.00
50103;BME280;35993;52.604;10.078;2023-03-14T03:52:01;98457.09;;;10.52;100.00
50103;BME280;35993;52.604;10.078;2023-03-14T03:54:26;98444.06;;;10.54;100.00
50103;BME280;35993;52.604;10.078;2023-03-14T03:56:54;98441.38;;;10.59;99.92
50103;BME280;35993;52.604;10.078;2023-03-14T03:59:20;98440.25;;;10.60;99.84
50103;BME280;35993;52.604;10.078;2023-03-14T04:01:47;98446.25;;;10.62;98.93
50103;BME280;35993;52.604;10.078;2023-03-14T04:04:13;98453.03;;;10.54;99.22
50103;BME280;35993;52.604;10.078;2023-03-14T04:06:38;98445.97;;;10.58;98.54
50103;BME280;35993;52.604;10.078;2023-03-14T04:09:04;98466.88;;;10.63;97.97
50103;BME280;35993;52.604;10.078;2023-03-14T04:11:35;98481.78;;;10.60;99.41
50103;BME280;35993;52.604;10.078;2023-03-14T04:14:07;98483.13;;;10.27;100.00
50103;BME280;35993;52.604;10.078;2023-03-14T04:16:33;98478.16;;;9.93;100.00
50103;BME280;35993;52.604;10.078;2023-03-14T04:19:11;98471.88;;;9.72;100.00
50103;BME280;35993;52.604;10.078;2023-03-14T04:21:37;98487.03;;;9.67;100.00
50103;BME280;35993;52.604;10.078;2023-03-14T04:24:08;98487.81;;;9.63;100.00
50103;BME280;35993;52.604;10.078;2023-03-14T04:26:35;98497.28;;;9.55;100.00
50103;BME280;35993;52.604;10.078;2023-03-14T04:29:01;98486.19;;;9.51;100.00
50103;BME280;35993;52.604;10.078;2023-03-14T04:31:27;98484.25;;;9.47;100.00
50103;BME280;35993;52.604;10.078;2023-03-14T04:33:53;98479.41;;;9.49;100.00
50103;BME280;35993;52.604;10.078;2023-03-14T04:36:26;98473.41;;;9.42;100.00
50103;BME280;35993;52.604;10.078;2023-03-14T04:38:52;98467.66;;;9.33;100.00
50103;BME280;35993;52.604;10.078;2023-03-14T04:41:19;98473.91;;;9.33;100.00
50103;BME280;35993;52.604;10.078;2023-03-14T04:43:45;98471.16;;;9.28;100.00
50103;BME280;35993;52.604;10.078;2023-03-14T04:46:12;98466.56;;;9.24;100.00
50103;BME280;35993;52.604;10.078;2023-03-14T04:48:38;98469.78;;;9.26;100.00
50103;BME280;35993;52.604;10.078;2023-03-14T04:51:05;98469.00;;;9.25;100.00
50103;BME280;35993;52.604;10.078;2023-03-14T04:53:32;98461.91;;;9.19;100.00
50103;BME280;35993;52.604;10.078;2023-03-14T04:56:01;98453.25;;;9.17;100.00
50103;BME280;35993;52.604;10.078;2023-03-14T04:58:34;98444.31;;;9.16;100.00
50103;BME280;35993;52.604;10.078;2023-03-14T05:01:04;98451.06;;;9.14;100.00
50103;BME280;35993;52.604;10.078;2023-03-14T05:03:37;98448.03;;;9.05;100.00
50103;BME280;35993;52.604;10.078;2023-03-14T05:06:26;98446.91;;;8.96;100.00
50103;BME280;35993;52.604;10.078;2023-03-14T05:09:04;98434.19;;;8.96;100.00
50103;BME280;35993;52.604;10.078;2023-03-14T05:11:47;98430.94;;;8.94;100.00
50103;BME280;35993;52.604;10.078;2023-03-14T05:14:13;98411.97;;;8.89;100.00
50103;BME280;35993;52.604;10.078;2023-03-14T05:17:11;98419.53;;;8.87;100.00
50103;BME280;35993;52.604;10.078;2023-03-14T05:20:03;98414.09;;;8.82;100.00
50103;BME280;35993;52.604;10.078;2023-03-14T05:22:54;98415.44;;;8.79;100.00
50103;BME280;35993;52.604;10.078;2023-03-14T05:25:39;98413.25;;;8.76;100.00
50103;BME280;35993;52.604;10.078;2023-03-14T05:28:23;98424.28;;;8.69;100.00
50103;BME280;35993;52.604;10.078;2023-03-14T05:31:17;98423.75;;;8.67;100.00
50103;BME280;35993;52.604;10.078;2023-03-14T05:33:53;98434.81;;;8.61;100.00
50103;BME280;35993;52.604;10.078;2023-03-14T05:36:38;98430.97;;;8.57;100.00
50103;BME280;35993;52.604;10.078;2023-03-14T05:39:15;98420.16;;;8.57;100.00
50103;BME280;35993;52.604;10.078;2023-03-14T05:42:08;98425.34;;;8.63;100.00
50103;BME280;35993;52.604;10.078;2023-03-14T05:44:43;98422.84;;;8.57;100.00
50103;BME280;35993;52.604;10.078;2023-03-14T05:47:27;98438.50;;;8.49;100.00
50103;BME280;35993;52.604;10.078;2023-03-14T05:50:13;98439.50;;;8.43;100.00
50103;BME280;35993;52.604;10.078;2023-03-14T05:52:57;98430.91;;;8.46;100.00
50103;BME280;35993;52.604;10.078;2023-03-14T05:55:35;98438.78;;;8.48;100.00
50103;BME280;35993;52.604;10.078;2023-03-14T05:58:17;98443.63;;;8.46;100.00
50103;BME280;35993;52.604;10.078;2023-03-14T06:01:04;98443.91;;;8.49;100.00
50103;BME280;35993;52.604;10.078;2023-03-14T06:03:51;98438.44;;;8.44;100.00
50103;BME280;35993;52.604;10.078;2023-03-14T06:06:16;98440.38;;;8.49;100.00
50103;BME280;35993;52.604;10.078;2023-03-14T06:08:42;98430.94;;;8.51;100.00
50103;BME280;35993;52.604;10.078;2023-03-14T06:11:10;98430.91;;;8.46;100.00
50103;BME280;35993;52.604;10.078;2023-03-14T06:13:35;98431.47;;;8.48;100.00
50103;BME280;35993;52.604;10.078;2023-03-14T06:16:01;98437.19;;;8.52;100.00
50103;BME280;35993;52.604;10.078;2023-03-14T06:18:27;98436.63;;;8.55;100.00
50103;BME280;35993;52.604;10.078;2023-03-14T06:20:55;98431.53;;;8.59;100.00
50103;BME280;35993;52.604;10.078;2023-03-14T06:23:24;98429.91;;;8.58;100.00
50103;BME280;35993;52.604;10.078;2023-03-14T06:25:50;98440.72;;;8.58;100.00
50103;BME280;35993;52.604;10.078;2023-03-14T06:28:16;98452.91;;;8.60;100.00
50103;BME280;35993;52.604;10.078;2023-03-14T06:30:42;98451.22;;;8.54;100.00
50103;BME280;35993;52.604;10.078;2023-03-14T06:33:09;98453.78;;;8.66;100.00
50103;BME280;35993;52.604;10.078;2023-03-14T06:35:35;98454.56;;;8.66;100.00
50103;BME280;35993;52.604;10.078;2023-03-14T06:38:01;98457.84;;;8.68;100.00
50103;BME280;35993;52.604;10.078;2023-03-14T06:40:27;98460.78;;;8.67;100.00
50103;BME280;35993;52.604;10.078;2023-03-14T06:42:56;98462.69;;;8.66;100.00
50103;BME280;35993;52.604;10.078;2023-03-14T06:45:23;98456.75;;;8.69;100.00
50103;BME280;35993;52.604;10.078;2023-03-14T06:47:49;98464.06;;;8.69;100.00
50103;BME280;35993;52.604;10.078;2023-03-14T06:50:17;98470.84;;;8.72;100.00
50103;BME280;35993;52.604;10.078;2023-03-14T06:52:44;98464.63;;;8.71;100.00
50103;BME280;35993;52.604;10.078;2023-03-14T06:55:15;98464.34;;;8.73;100.00
50103;BME280;35993;52.604;10.078;2023-03-14T06:57:41;98472.78;;;8.76;100.00
50103;BME280;35993;52.604;10.078;2023-03-14T07:00:08;98470.06;;;8.76;100.00
50103;BME280;35993;52.604;10.078;2023-03-14T07:02:35;98478.47;;;8.80;100.00
50103;BME280;35993;52.604;10.078;2023-03-14T07:05:01;98482.81;;;8.86;100.00
50103;BME280;35993;52.604;10.078;2023-03-14T07:07:28;98473.66;;;8.87;100.00
50103;BME280;35993;52.604;10.078;2023-03-14T07:09:54;98486.16;;;8.98;100.00
50103;BME280;35993;52.604;10.078;2023-03-14T07:12:20;98478.94;;;9.09;100.00
50103;BME280;35993;52.604;10.078;2023-03-14T07:14:45;98480.56;;;9.15;100.00
50103;BME280;35993;52.604;10.078;2023-03-14T07:17:11;98477.09;;;9.20;100.00
50103;BME280;35993;52.604;10.078;2023-03-14T07:19:36;98478.22;;;9.29;100.00
50103;BME280;35993;52.604;10.078;2023-03-14T07:22:04;98484.44;;;9.30;100.00
50103;BME280;35993;52.604;10.078;2023-03-14T07:24:31;98464.16;;;9.32;100.00
50103;BME280;35993;52.604;10.078;2023-03-14T07:26:56;98475.28;;;9.36;100.00
50103;BME280;35993;52.604;10.078;2023-03-14T07:29:22;98481.78;;;9.40;100.00
50103;BME280;35993;52.604;10.078;2023-03-14T07:31:47;98479.09;;;9.40;100.00
50103;BME280;35993;52.604;10.078;2023-03-14T07:34:17;98478.00;;;9.36;100.00
50103;BME280;35993;52.604;10.078;2023-03-14T07:36:43;98470.09;;;9.34;100.00
50103;BME280;35993;52.604;10.078;2023-03-14T07:39:09;98472.81;;;9.34;100.00
50103;BME280;35993;52.604;10.078;2023-03-14T07:41:43;98464.97;;;9.38;100.00
50103;BME280;35993;52.604;10.078;2023-03-14T07:44:35;98477.19;;;9.46;100.00
50103;BME280;35993;52.604;10.078;2023-03-14T07:47:00;98484.28;;;9.52;100.00
50103;BME280;35993;52.604;10.078;2023-03-14T07:49:26;98481.84;;;9.56;100.00
50103;BME280;35993;52.604;10.078;2023-03-14T07:51:52;98481.31;;;9.59;100.00
50103;BME280;35993;52.604;10.078;2023-03-14T07:54:18;98480.53;;;9.63;100.00
50103;BME280;35993;52.604;10.078;2023-03-14T07:56:43;98480.81;;;9.72;100.00
50103;BME280;35993;52.604;10.078;2023-03-14T07:59:09;98479.22;;;9.76;100.00
50103;BME280;35993;52.604;10.078;2023-03-14T08:01:34;98470.81;;;9.83;100.00
50103;BME280;35993;52.604;10.078;2023-03-14T08:04:00;98477.31;;;9.82;100.00
50103;BME280;35993;52.604;10.078;2023-03-14T08:06:25;98470.81;;;9.78;100.00
50103;BME280;35993;52.604;10.078;2023-03-14T08:08:51;98472.69;;;9.72;100.00
50103;BME280;35993;52.604;10.078;2023-03-14T08:11:16;98473.22;;;9.74;100.00
50103;BME280;35993;52.604;10.078;2023-03-14T08:13:42;98476.97;;;9.63;100.00
50103;BME280;35993;52.604;10.078;2023-03-14T08:16:08;98483.16;;;9.43;100.00
50103;BME280;35993;52.604;10.078;2023-03-14T08:18:33;98467.94;;;9.31;100.00
50103;BME280;35993;52.604;10.078;2023-03-14T08:20:59;98469.03;;;9.35;100.00
50103;BME280;35993;52.604;10.078;2023-03-14T08:23:24;98459.06;;;9.46;100.00
50103;BME280;35993;52.604;10.078;2023-03-14T08:25:50;98465.59;;;9.50;100.00
50103;BME280;35993;52.604;10.078;2023-03-14T08:28:17;98469.69;;;9.63;100.00
50103;BME280;35993;52.604;10.078;2023-03-14T08:30:43;98472.69;;;9.72;100.00
50103;BME280;35993;52.604;10.078;2023-03-14T08:33:08;98462.16;;;9.76;100.00
50103;BME280;35993;52.604;10.078;2023-03-14T08:35:34;98477.56;;;9.75;100.00
50103;BME280;35993;52.604;10.078;2023-03-14T08:37:59;98465.41;;;9.83;100.00
50103;BME280;35993;52.604;10.078;2023-03-14T08:40:25;98465.69;;;9.92;100.00
50103;BME280;35993;52.604;10.078;2023-03-14T08:42:50;98468.16;;;10.04;100.00
50103;BME280;35993;52.604;10.078;2023-03-14T08:45:16;98474.94;;;10.22;100.00
50103;BME280;35993;52.604;10.078;2023-03-14T08:47:43;98480.91;;;10.13;100.00
50103;BME280;35993;52.604;10.078;2023-03-14T08:50:09;98487.97;;;10.09;100.00
50103;BME280;35993;52.604;10.078;2023-03-14T08:52:35;98486.84;;;9.95;100.00
50103;BME280;35993;52.604;10.078;2023-03-14T08:55:03;98496.53;;;9.75;100.00
50103;BME280;35993;52.604;10.078;2023-03-14T08:57:29;98492.97;;;9.59;100.00
50103;BME280;35993;52.604;10.078;2023-03-14T08:59:56;98498.63;;;9.52;100.00
50103;BME280;35993;52.604;10.078;2023-03-14T09:02:23;98498.88;;;9.51;100.00
50103;BME280;35993;52.604;10.078;2023-03-14T09:04:52;98502.66;;;9.45;100.00
50103;BME280;35993;52.604;10.078;2023-03-14T09:07:18;98503.75;;;9.44;100.00
50103;BME280;35993;52.604;10.078;2023-03-14T09:09:44;98506.47;;;9.49;100.00
50103;BME280;35993;52.604;10.078;2023-03-14T09:12:10;98499.97;;;9.50;100.00
50103;BME280;35993;52.604;10.078;2023-03-14T09:14:35;98509.75;;;9.56;100.00
50103;BME280;35993;52.604;10.078;2023-03-14T09:17:02;98497.00;;;9.51;100.00
50103;BME280;35993;52.604;10.078;2023-03-14T09:19:28;98492.16;;;9.59;100.00
50103;BME280;35993;52.604;10.078;2023-03-14T09:21:54;98501.66;;;9.72;100.00
50103;BME280;35993;52.604;10.078;2023-03-14T09:24:19;98501.97;;;9.75;100.00
50103;BME280;35993;52.604;10.078;2023-03-14T09:26:45;98494.38;;;9.72;100.00
50103;BME280;35993;52.604;10.078;2023-03-14T09:29:10;98505.22;;;9.77;100.00
50103;BME280;35993;52.604;10.078;2023-03-14T09:31:36;98500.88;;;9.76;100.00
50103;BME280;35993;52.604;10.078;2023-03-14T09:34:01;98512.78;;;9.70;100.00
50103;BME280;35993;52.604;10.078;2023-03-14T09:36:27;98498.44;;;9.75;100.00
50103;BME280;35993;52.604;10.078;2023-03-14T09:38:53;98504.44;;;9.87;100.00
50103;BME280;35993;52.604;10.078;2023-03-14T09:43:49;98498.75;;;9.89;100.00
50103;BME280;35993;52.604;10.078;2023-03-14T09:46:20;98506.66;;;10.00;100.00
50103;BME280;35993;52.604;10.078;2023-03-14T09:48:47;98494.44;;;9.98;100.00
50103;BME280;35993;52.604;10.078;2023-03-14T09:51:14;98497.44;;;10.02;100.00
50103;BME280;35993;52.604;10.078;2023-03-14T09:53:44;98497.13;;;9.93;100.00
50103;BME280;35993;52.604;10.078;2023-03-14T09:56:25;98506.06;;;9.88;100.00
50103;BME280;35993;52.604;10.078;2023-03-14T09:58:54;98498.78;;;9.94;100.00
50103;BME280;35993;52.604;10.078;2023-03-14T10:01:32;98497.13;;;9.88;100.00
50103;BME280;35993;52.604;10.078;2023-03-14T10:04:04;98498.50;;;10.00;100.00
50103;BME280;35993;52.604;10.078;2023-03-14T10:06:31;98494.19;;;10.20;100.00
50103;BME280;35993;52.604;10.078;2023-03-14T10:08:57;98495.84;;;10.26;100.00
50103;BME280;35993;52.604;10.078;2023-03-14T10:11:23;98491.00;;;10.44;100.00
50103;BME280;35993;52.604;10.078;2023-03-14T10:14:02;98496.44;;;10.54;100.00
50103;BME280;35993;52.604;10.078;2023-03-14T10:16:31;98488.56;;;10.58;100.00
50103;BME280;35993;52.604;10.078;2023-03-14T10:19:06;98484.78;;;10.74;100.00
50103;BME280;35993;52.604;10.078;2023-03-14T10:21:39;98492.91;;;10.74;100.00
50103;BME280;35993;52.604;10.078;2023-03-14T10:24:30;98495.88;;;10.78;100.00
50103;BME280;35993;52.604;10.078;2023-03-14T10:27:06;98485.84;;;10.78;100.00
50103;BME280;35993;52.604;10.078;2023-03-14T10:29:52;98487.22;;;10.76;100.00
50103;BME280;35993;52.604;10.078;2023-03-14T10:32:19;98489.38;;;10.79;100.00
50103;BME280;35993;52.604;10.078;2023-03-14T10:35:24;98483.16;;;10.68;100.00
50103;BME280;35993;52.604;10.078;2023-03-14T10:38:01;98484.50;;;10.76;100.00
50103;BME280;35993;52.604;10.078;2023-03-14T10:40:30;98484.50;;;10.76;100.00
50103;BME280;35993;52.604;10.078;2023-03-14T10:42:58;98473.66;;;10.71;100.00
50103;BME280;35993;52.604;10.078;2023-03-14T10:45:38;98491.00;;;10.64;100.00
50103;BME280;35993;52.604;10.078;2023-03-14T10:48:32;98490.47;;;10.62;100.00
50103;BME280;35993;52.604;10.078;2023-03-14T10:51:06;98477.44;;;10.64;100.00
50103;BME280;35993;52.604;10.078;2023-03-14T10:53:45;98487.50;;;10.64;100.00
50103;BME280;35993;52.604;10.078;2023-03-14T10:56:17;98491.00;;;10.64;100.00
50103;BME280;35993;52.604;10.078;2023-03-14T10:58:45;98507.28;;;10.49;100.00
50103;BME280;35993;52.604;10.078;2023-03-14T11:03:49;98507.97;;;9.88;100.00
50103;BME280;35993;52.604;10.078;2023-03-14T11:06:21;98509.22;;;9.59;100.00
50103;BME280;35993;52.604;10.078;2023-03-14T11:08:57;98510.56;;;9.51;100.00
50103;BME280;35993;52.604;10.078;2023-03-14T11:11:29;98507.78;;;9.36;100.00
50103;BME280;35993;52.604;10.078;2023-03-14T11:14:12;98521.75;;;9.23;100.00
50103;BME280;35993;52.604;10.078;2023-03-14T11:16:52;98515.75;;;9.15;100.00
50103;BME280;35993;52.604;10.078;2023-03-14T11:19:42;98524.94;;;9.09;100.00
50103;BME280;35993;52.604;10.078;2023-03-14T11:22:21;98515.94;;;8.98;100.00
50103;BME280;35993;52.604;10.078;2023-03-14T11:27:55;98559.03;;;8.73;100.00
50103;BME280;35993;52.604;10.078;2023-03-14T11:35:29;98611.75;;;7.54;100.00
50103;BME280;35993;52.604;10.078;2023-03-14T11:38:18;98633.94;;;7.22;100.00
50103;BME280;35993;52.604;10.078;2023-03-14T11:40:46;98642.03;;;7.22;100.00
50103;BME280;35993;52.604;10.078;2023-03-14T11:43:28;98643.44;;;6.91;100.00
50103;BME280;35993;52.604;10.078;2023-03-14T11:45:58;98651.44;;;6.85;100.00
50103;BME280;35993;52.604;10.078;2023-03-14T11:50:57;98679.66;;;6.95;100.00
50103;BME280;35993;52.604;10.078;2023-03-14T11:53:43;98711.97;;;6.78;100.00
50103;BME280;35993;52.604;10.078;2023-03-14T11:56:31;98717.72;;;6.40;100.00
50103;BME280;35993;52.604;10.078;2023-03-14T11:59:03;98709.47;;;6.18;100.00
50103;BME280;35993;52.604;10.078;2023-03-14T12:02:21;98742.75;;;5.88;100.00
50103;BME280;35993;52.604;10.078;2023-03-14T12:10:41;98777.50;;;5.90;100.00
50103;BME280;35993;52.604;10.078;2023-03-14T12:13:09;98779.81;;;5.51;100.00
50103;BME280;35993;52.604;10.078;2023-03-14T12:15:39;98791.41;;;5.51;100.00
50103;BME280;35993;52.604;10.078;2023-03-14T12:18:18;98797.00;;;5.50;100.00
50103;BME280;35993;52.604;10.078;2023-03-14T12:20:58;98819.00;;;5.16;100.00
50103;BME280;35993;52.604;10.078;2023-03-14T12:23:25;98828.81;;;5.11;100.00
50103;BME280;35993;52.604;10.078;2023-03-14T12:28:36;98860.88;;;4.93;100.00
50103;BME280;35993;52.604;10.078;2023-03-14T12:41:46;98923.84;;;4.86;100.00
50103;BME280;35993;52.604;10.078;2023-03-14T12:49:45;98945.28;;;4.55;100.00
50103;BME280;35993;52.604;10.078;2023-03-14T12:52:22;98947.72;;;4.57;100.00
50103;BME280;35993;52.604;10.078;2023-03-14T12:55:06;98967.97;;;4.34;100.00
50103;BME280;35993;52.604;10.078;2023-03-14T12:57:42;98981.69;;;4.26;100.00
50103;BME280;35993;52.604;10.078;2023-03-14T13:00:17;98981.66;;;4.51;100.00
50103;BME280;35993;52.604;10.078;2023-03-14T13:02:44;98994.88;;;4.78;100.00
50103;BME280;35993;52.604;10.078;2023-03-14T13:10:18;99016.44;;;4.21;100.00
50103;BME280;35993;52.604;10.078;2023-03-14T13:12:55;99028.72;;;4.35;100.00
50103;BME280;35993;52.604;10.078;2023-03-14T13:15:26;99028.25;;;4.45;100.00
50103;BME280;35993;52.604;10.078;2023-03-14T13:17:54;99032.56;;;4.46;100.00
50103;BME280;35993;52.604;10.078;2023-03-14T13:20:29;99042.50;;;4.46;100.00
50103;BME280;35993;52.604;10.078;2023-03-14T13:22:55;99067.50;;;4.46;100.00
50103;BME280;35993;52.604;10.078;2023-03-14T13:25:21;99083.88;;;4.70;100.00
50103;BME280;35993;52.604;10.078;2023-03-14T13:27:48;99084.56;;;4.58;100.00
50103;BME280;35993;52.604;10.078;2023-03-14T13:30:29;99100.53;;;4.53;100.00
50103;BME280;35993;52.604;10.078;2023-03-14T13:33:03;99104.28;;;4.46;100.00
50103;BME280;35993;52.604;10.078;2023-03-14T13:35:39;99129.44;;;4.58;100.00
50103;BME280;35993;52.604;10.078;2023-03-14T13:38:21;99126.44;;;4.73;100.00
50103;BME280;35993;52.604;10.078;2023-03-14T13:40:49;99142.88;;;4.58;100.00
50103;BME280;35993;52.604;10.078;2023-03-14T13:46:12;99160.69;;;4.52;100.00
50103;BME280;35993;52.604;10.078;2023-03-14T13:48:43;99165.13;;;4.72;100.00
50103;BME280;35993;52.604;10.078;2023-03-14T13:51:12;99163.81;;;4.49;100.00
50103;BME280;35993;52.604;10.078;2023-03-14T13:53:51;99185.72;;;4.46;100.00
50103;BME280;35993;52.604;10.078;2023-03-14T13:56:18;99193.72;;;4.59;100.00
50103;BME280;35993;52.604;10.078;2023-03-14T13:58:44;99213.66;;;4.38;100.00
50103;BME280;35993;52.604;10.078;2023-03-14T14:01:22;99221.88;;;4.57;100.00